createdAt,value
2024-04-08T03:38:10.543Z,12.00
2024-04-08T03:40:38.223Z,12.60
2024-04-08T03:43:06.802Z,13.00
2024-04-08T03:45:34.834Z,13.80
2024-04-08T03:50:31.392Z,13.10
2024-04-08T03:52:59.233Z,13.80
2024-04-08T03:55:28.689Z,13.80
2024-04-08T03:57:56.611Z,13.70
2024-04-08T04:00:27.204Z,13.30
2024-04-08T04:02:54.879Z,13.10
2024-04-08T04:05:22.843Z,12.70
2024-04-08T04:28:45.308Z,13.30
2024-04-08T04:31:43.450Z,13.80
2024-04-08T04:40:00.546Z,13.00
2024-04-08T04:42:28.169Z,14.40
2024-04-08T04:45:22.534Z,14.00
2024-04-08T04:47:50.468Z,12.20
2024-04-08T04:53:44.597Z,12.30
2024-04-08T04:56:12.195Z,12.20
2024-04-08T04:58:39.810Z,13.30
2024-04-08T05:01:31.017Z,12.10
2024-04-08T05:06:49.496Z,12.30
2024-04-08T05:14:55.665Z,11.50
2024-04-08T05:17:24.425Z,12.60
2024-04-08T05:40:10.361Z,12.20
2024-04-08T05:43:03.668Z,13.50
2024-04-08T05:45:31.648Z,13.40
2024-04-08T05:47:59.443Z,13.60
2024-04-08T05:53:01.666Z,12.80
2024-04-08T05:58:11.481Z,13.20
2024-04-08T06:00:40.013Z,14.70
2024-04-08T06:08:28.629Z,14.20
2024-04-08T06:15:59.503Z,13.40
2024-04-08T06:21:16.624Z,14.20
2024-04-08T06:23:44.290Z,12.00
2024-04-08T06:26:12.187Z,14.10
2024-04-08T06:28:39.783Z,15.20
2024-04-08T06:51:33.399Z,14.10
2024-04-08T06:54:01.106Z,13.30
2024-04-08T06:56:28.747Z,12.90
2024-04-08T06:59:21.369Z,13.40
2024-04-08T07:01:49.028Z,13.80
2024-04-08T07:04:42.277Z,14.10
2024-04-08T07:07:09.849Z,13.80
2024-04-08T07:14:54.138Z,13.90
2024-04-08T07:17:21.765Z,15.20
2024-04-08T07:19:50.965Z,13.80
2024-04-08T07:30:24.672Z,13.90
2024-04-08T07:32:52.341Z,14.40
2024-04-08T07:35:23.477Z,14.80
2024-04-08T07:38:17.389Z,14.80
2024-04-08T07:46:11.711Z,14.90
2024-04-08T07:48:40.382Z,15.30
2024-04-08T07:51:07.997Z,16.10
2024-04-08T07:53:36.828Z,17.00
2024-04-08T07:56:29.466Z,16.40
2024-04-08T07:58:57.094Z,14.20
2024-04-08T08:01:51.999Z,16.40
2024-04-08T08:06:47.752Z,15.80
2024-04-08T08:09:15.336Z,16.40
2024-04-08T08:11:42.899Z,17.60
2024-04-08T08:19:07.589Z,16.40
2024-04-08T08:21:35.258Z,18.20
2024-04-08T08:24:03.385Z,18.90
2024-04-08T08:26:33.419Z,17.60
2024-04-08T08:33:57.088Z,18.30
2024-04-08T08:36:24.707Z,18.00
2024-04-08T08:38:52.370Z,18.50
2024-04-08T08:41:23.177Z,18.10
2024-04-08T08:46:45.379Z,20.20
2024-04-08T08:52:08.572Z,18.90
2024-04-08T08:54:43.367Z,18.90
2024-04-08T08:57:11.181Z,18.30
2024-04-08T09:02:12.270Z,18.20
2024-04-08T09:04:42.358Z,19.40
2024-04-08T09:07:14.478Z,20.20
2024-04-08T09:09:57.773Z,19.70
2024-04-08T09:12:26.333Z,19.40
2024-04-08T09:14:54.945Z,18.30
2024-04-08T09:23:00.372Z,21.10
2024-04-08T09:30:46.629Z,20.50
2024-04-08T09:33:14.938Z,22.00
2024-04-08T09:35:46.461Z,21.00
2024-04-08T09:38:40.055Z,20.70
2024-04-08T09:41:07.741Z,20.90
2024-04-08T09:43:35.660Z,21.00
2024-04-08T09:46:04.439Z,21.10
2024-04-08T09:51:26.154Z,22.30
2024-04-08T09:59:05.518Z,23.00
2024-04-08T10:01:33.507Z,21.50
2024-04-08T10:04:08.200Z,23.40
2024-04-08T10:06:35.988Z,23.90
2024-04-08T10:09:03.851Z,23.50
2024-04-08T10:11:32.489Z,24.10
2024-04-08T10:16:28.966Z,24.40
2024-04-08T10:18:57.322Z,24.10
2024-04-08T10:21:27.697Z,23.00
2024-04-08T10:30:15.815Z,24.00
2024-04-08T10:35:17.484Z,24.40
2024-04-08T10:37:47.179Z,23.10
2024-04-08T10:43:21.554Z,24.10
2024-04-08T10:45:57.923Z,23.60
2024-04-08T10:48:27.602Z,26.00
2024-04-08T10:51:05.452Z,24.90
2024-04-08T10:53:34.595Z,25.40
2024-04-08T10:56:04.182Z,23.80
2024-04-08T10:58:31.756Z,24.10
2024-04-08T11:01:00.589Z,23.90
2024-04-08T11:03:28.205Z,23.40
2024-04-08T11:05:55.829Z,24.00
2024-04-08T11:08:23.444Z,23.60
2024-04-08T11:13:22.009Z,23.60
2024-04-08T11:15:49.735Z,23.50
2024-04-08T11:18:20.120Z,22.40
2024-04-08T11:23:32.829Z,26.40
2024-04-08T11:26:00.555Z,27.40
2024-04-08T11:28:32.599Z,26.70
2024-04-08T11:31:05.636Z,27.20
2024-04-08T11:33:33.533Z,26.60
2024-04-08T11:36:06.139Z,26.90
2024-04-08T11:38:43.025Z,26.90
2024-04-08T11:41:15.779Z,27.10
2024-04-08T11:44:07.868Z,29.50
2024-04-08T11:49:35.381Z,30.00
2024-04-08T11:52:06.707Z,30.70
2024-04-08T11:57:25.461Z,32.50
2024-04-08T11:59:56.697Z,31.10
2024-04-08T12:02:24.680Z,33.20
2024-04-08T12:04:53.713Z,30.70
2024-04-08T12:07:21.758Z,30.10
2024-04-08T12:09:50.608Z,28.10
2024-04-08T12:14:48.716Z,31.10
2024-04-08T12:17:16.623Z,30.60
2024-04-08T12:19:45.954Z,30.60
2024-04-08T12:22:31.944Z,30.00
2024-04-08T12:24:59.640Z,29.80
2024-04-08T12:27:39.619Z,30.70
2024-04-08T12:35:03.607Z,32.60
2024-04-08T12:37:31.500Z,31.10
2024-04-08T12:40:00.248Z,30.90
2024-04-08T12:45:30.332Z,32.20
2024-04-08T12:48:02.199Z,32.90
2024-04-08T12:53:26.387Z,30.80
2024-04-08T12:55:54.820Z,31.50
2024-04-08T12:58:22.412Z,30.60
2024-04-08T13:00:58.321Z,30.30
2024-04-08T13:03:26.017Z,30.90
2024-04-08T13:06:19.211Z,30.90
2024-04-08T13:08:46.917Z,32.10
2024-04-08T13:11:15.257Z,31.40
2024-04-08T13:13:45.008Z,31.70
2024-04-08T13:16:14.498Z,31.80
2024-04-08T13:18:43.804Z,32.90
2024-04-08T13:23:44.972Z,31.90
2024-04-08T13:31:21.501Z,32.90
2024-04-08T13:33:49.296Z,34.50
2024-04-08T13:36:17.175Z,34.10
2024-04-08T13:38:44.921Z,35.30
2024-04-08T13:41:12.529Z,34.90
2024-04-08T13:43:42.914Z,32.80
2024-04-08T13:46:12.015Z,33.30
2024-04-08T13:48:39.781Z,32.90
2024-04-08T13:51:09.553Z,32.20
2024-04-08T13:54:02.606Z,32.00
2024-04-08T13:58:58.491Z,32.30
2024-04-08T14:01:26.109Z,31.90
2024-04-08T14:03:54.839Z,30.90
2024-04-08T14:06:48.442Z,30.60
2024-04-08T14:09:16.144Z,28.20
2024-04-08T14:11:45.946Z,28.90
2024-04-08T14:17:06.867Z,28.60
2024-04-08T14:27:24.811Z,26.30
2024-04-08T14:29:56.015Z,26.10
2024-04-08T14:32:28.159Z,26.60
2024-04-08T14:37:43.397Z,24.40
2024-04-08T14:42:41.343Z,24.30
2024-04-08T14:45:09.138Z,24.80
2024-04-08T14:47:37.167Z,24.10
2024-04-08T14:50:05.160Z,22.90
2024-04-08T14:52:39.454Z,24.70
2024-04-08T14:55:09.298Z,24.30
2024-04-08T14:57:37.355Z,23.80
2024-04-08T15:00:08.422Z,23.10
2024-04-08T15:02:36.167Z,24.20
2024-04-08T15:05:03.994Z,23.90
2024-04-08T15:07:34.987Z,22.30
2024-04-08T15:17:28.538Z,20.80
2024-04-08T15:19:56.214Z,23.60
2024-04-08T15:22:23.806Z,22.00
2024-04-08T15:25:02.931Z,22.10
2024-04-08T15:32:27.508Z,21.60
2024-04-08T15:34:55.328Z,21.80
2024-04-08T15:37:22.939Z,21.70
2024-04-08T15:40:16.471Z,22.00
2024-04-08T15:42:44.202Z,20.70
2024-04-08T15:45:15.257Z,20.80
2024-04-08T15:50:13.157Z,23.30
2024-04-08T15:52:57.562Z,22.90
2024-04-08T15:55:27.218Z,24.40
2024-04-08T15:58:07.826Z,24.60
2024-04-08T16:00:35.947Z,23.40
2024-04-08T16:06:15.085Z,23.80
2024-04-08T16:08:46.186Z,23.90
2024-04-08T16:13:49.563Z,24.00
2024-04-08T16:16:30.597Z,23.60
2024-04-08T16:18:58.281Z,23.80
2024-04-08T16:21:26.162Z,25.90
2024-04-08T16:24:28.787Z,25.10
2024-04-08T16:29:24.816Z,27.10
2024-04-08T16:31:52.470Z,26.50
2024-04-08T16:34:20.215Z,26.50
2024-04-08T16:39:17.900Z,27.00
2024-04-08T16:41:45.773Z,27.40
2024-04-08T16:47:06.874Z,27.10
2024-04-08T16:49:34.537Z,25.60
2024-04-08T16:57:26.136Z,26.30
2024-04-08T16:59:53.848Z,24.60
2024-04-08T17:02:21.722Z,26.80
2024-04-08T17:04:50.194Z,25.60
2024-04-08T17:07:17.860Z,25.30
2024-04-08T17:09:45.474Z,26.60
2024-04-08T17:12:13.153Z,26.60
2024-04-08T17:20:43.503Z,27.40
2024-04-08T17:23:19.713Z,26.70
2024-04-08T17:25:56.324Z,25.80
2024-04-08T17:28:25.068Z,25.80
2024-04-08T17:31:01.536Z,27.10
2024-04-08T17:33:38.789Z,25.30
2024-04-08T17:41:30.328Z,23.90
2024-04-08T17:44:03.507Z,24.40
2024-04-08T17:46:33.320Z,24.10
2024-04-08T17:49:14.138Z,25.10
2024-04-08T17:51:42.033Z,24.10
2024-04-08T17:54:29.577Z,23.60
2024-04-08T17:56:57.591Z,24.00
2024-04-08T17:59:29.106Z,23.10
2024-04-08T18:01:56.935Z,22.30
2024-04-08T18:04:51.814Z,23.30
2024-04-08T18:07:19.409Z,21.70
2024-04-08T18:09:48.722Z,21.20
2024-04-08T18:15:11.229Z,21.30
2024-04-08T18:17:38.919Z,22.30
2024-04-08T18:20:17.875Z,20.50
2024-04-08T18:22:45.586Z,21.10
2024-04-08T18:25:13.167Z,20.60
2024-04-08T18:27:40.859Z,20.80
2024-04-08T18:30:24.414Z,20.50
2024-04-08T18:32:52.376Z,19.70
2024-04-08T18:40:19.292Z,19.70
2024-04-08T18:42:46.898Z,18.80
2024-04-08T18:45:14.552Z,19.40
2024-04-08T18:47:42.126Z,18.00
2024-04-08T18:50:09.865Z,17.50
2024-04-08T18:53:03.623Z,18.30
2024-04-08T18:58:00.089Z,18.30
2024-04-08T19:00:29.981Z,18.30
2024-04-08T19:02:58.115Z,18.30
2024-04-08T19:05:26.017Z,18.50
2024-04-08T19:07:53.604Z,16.30
2024-04-08T19:10:21.196Z,18.70
2024-04-08T19:12:48.804Z,16.90
2024-04-08T19:15:16.589Z,17.00
2024-04-08T19:17:44.487Z,16.40
2024-04-08T19:20:12.139Z,17.10
2024-04-08T19:22:39.758Z,17.20
2024-04-08T19:25:07.635Z,16.90
2024-04-08T19:27:35.471Z,16.90
2024-04-08T19:30:04.945Z,17.40
2024-04-08T19:35:04.303Z,16.70
2024-04-08T19:40:25.763Z,16.30
2024-04-08T19:42:54.361Z,15.90
2024-04-08T19:45:25.586Z,16.80
2024-04-08T19:48:23.225Z,16.20
2024-04-08T19:53:43.223Z,15.20
2024-04-08T19:56:15.604Z,16.20
2024-04-08T19:58:43.663Z,16.30
2024-04-08T20:03:43.051Z,16.50
2024-04-08T20:06:10.785Z,14.70
2024-04-08T20:08:39.816Z,14.60
2024-04-08T20:11:12.584Z,16.20
2024-04-08T20:13:53.636Z,14.80
2024-04-08T20:16:50.286Z,16.10
2024-04-08T20:19:18.022Z,14.90
2024-04-08T20:21:46.126Z,14.50
2024-04-08T20:24:13.833Z,15.10
2024-04-08T20:26:41.434Z,15.90
2024-04-08T20:29:10.799Z,14.50
2024-04-08T20:31:38.441Z,13.90
2024-04-08T20:34:07.101Z,14.60
2024-04-08T20:39:05.541Z,14.40
2024-04-08T20:41:33.668Z,14.90
2024-04-08T20:44:01.251Z,14.40
2024-04-08T20:46:30.716Z,14.70
2024-04-08T20:48:58.941Z,14.10
2024-04-08T20:51:26.873Z,15.80
2024-04-08T20:54:20.875Z,14.30
2024-04-08T20:56:48.485Z,14.00
2024-04-08T20:59:16.318Z,14.70
2024-04-08T21:04:16.150Z,13.90
2024-04-08T21:09:11.846Z,14.70
2024-04-08T21:11:39.842Z,15.70
2024-04-08T21:14:09.269Z,14.50
2024-04-08T21:16:38.126Z,13.70
2024-04-08T21:19:05.798Z,14.40
2024-04-08T21:21:33.818Z,14.70
2024-04-08T21:24:01.517Z,15.50
2024-04-08T21:26:55.462Z,15.50
2024-04-08T21:29:23.097Z,15.90
2024-04-08T21:31:51.596Z,14.00
2024-04-08T21:34:42.225Z,15.00
2024-04-08T21:37:09.792Z,14.30
2024-04-08T21:39:37.502Z,14.50
2024-04-08T21:44:33.487Z,15.30
2024-04-08T21:47:01.057Z,16.10
2024-04-08T21:49:45.193Z,14.40
2024-04-08T21:52:13.061Z,15.00
2024-04-08T21:54:40.735Z,14.40
2024-04-08T21:57:12.151Z,16.00
2024-04-08T21:59:39.712Z,16.20
2024-04-08T22:02:27.616Z,13.90
2024-04-08T22:04:55.298Z,13.60
2024-04-08T22:07:22.898Z,14.80
2024-04-08T22:09:50.462Z,15.10
2024-04-08T22:12:18.088Z,14.60
2024-04-08T22:17:58.621Z,14.90
2024-04-08T22:20:26.258Z,13.90
2024-04-08T22:22:53.806Z,14.10
2024-04-08T22:25:21.527Z,14.70
2024-04-08T22:27:49.139Z,14.80
2024-04-08T22:30:30.483Z,14.90
2024-04-08T22:32:58.667Z,15.00
2024-04-08T22:35:26.489Z,15.00
2024-04-08T22:38:19.902Z,15.70
2024-04-08T22:40:47.542Z,14.80
2024-04-08T22:43:15.203Z,14.70
2024-04-08T22:45:53.169Z,14.50
2024-04-08T22:48:20.961Z,14.50
2024-04-08T22:50:48.653Z,14.40
2024-04-08T22:53:16.252Z,14.30
2024-04-08T22:55:43.908Z,15.70
2024-04-08T22:58:11.466Z,14.50
2024-04-08T23:00:39.132Z,14.30
2024-04-08T23:03:06.857Z,15.90
2024-04-08T23:05:35.468Z,15.20
2024-04-08T23:08:03.912Z,14.60
2024-04-08T23:10:37.069Z,14.20
2024-04-08T23:13:04.701Z,15.70
2024-04-08T23:15:32.957Z,14.00
2024-04-08T23:18:25.931Z,15.90
2024-04-08T23:23:22.816Z,14.90
2024-04-08T23:25:50.632Z,14.60
2024-04-08T23:28:19.076Z,14.80
2024-04-08T23:30:47.192Z,14.80
2024-04-08T23:33:15.090Z,14.30
2024-04-08T23:35:43.324Z,14.50
2024-04-08T23:38:10.886Z,14.60
2024-04-08T23:41:04.830Z,14.20
2024-04-08T23:43:48.829Z,14.30
2024-04-08T23:46:16.502Z,14.30
2024-04-08T23:48:44.174Z,14.30
2024-04-08T23:51:11.837Z,13.90
2024-04-08T23:53:39.589Z,16.30
2024-04-08T23:58:38.406Z,14.20
